Latest Weather Observations for Griffith

IDN60801

Issued at 6:03 pm EDT Friday 20 October 2017 (issued every 30 minutes, with the page automatically refreshed every 10 minutes)

About weather observations | Map of weather stations | Latest weather observations for NSW | Other Formats
Station Details ID: 075041 Name: GRIFFITH AIRPORT AWS Lat: -34.25 Lon: 146.07 Height: 134.0 m
Data from the previous 72 hours. | See also: Recent months at Griffith
Date/Time
EDT
Temp
°C
App
Temp
°C
Dew
Point
°C
Rel
Hum
%
Delta-T
°C
Wind Press
QNH
hPa
Press
MSL
hPa
Rain since
9am
mm
Dir  Spd
km/h
Gust
km/h
Spd
kts
Gust
kts
20/06:00pm 20.7 14.6 2.5 30 8.5 SSW 24 37 13 20 1020.9 1020.7 0.0
20/05:30pm 21.0 14.5 2.8 30 8.6 SSW 26 39 14 21 1020.8 1020.6 0.0
20/05:00pm 21.9 17.0 5.3 34 8.3 SSW 20 37 11 20 1020.6 1020.4 0.0
20/04:30pm 22.1 16.8 5.1 33 8.5 SSW 22 33 12 18 1020.4 1020.2 0.0
20/04:00pm 22.2 15.9 5.6 34 8.3 SW 28 37 15 20 1020.7 1020.5 0.0
20/03:30pm 22.0 15.6 5.4 34 8.3 SSW 28 39 15 21 1020.9 1020.7 0.0
20/03:00pm 21.4 14.9 4.9 34 8.1 SSW 28 37 15 20 1021.2 1021.0 0.0
20/02:30pm 21.4 14.9 4.9 34 8.2 SSW 28 37 15 20 1021.7 1021.5 0.0
20/02:00pm 21.0 14.6 5.4 36 7.7 SW 28 39 15 21 1022.0 1021.8 0.0
20/01:30pm 20.6 13.7 4.6 35 7.8 SW 30 37 16 20 1022.2 1022.0 0.0
20/01:00pm 20.4 14.9 7.7 44 6.6 SW 26 39 14 21 1022.4 1022.2 0.0
20/12:30pm 18.8 13.5 6.6 45 6.1 SSW 24 35 13 19 1022.7 1022.6 0.0
20/12:00pm 18.9 13.4 7.4 47 5.8 SSW 26 35 14 19 1023.0 1022.9 0.0
20/11:30am 17.6 10.4 5.9 46 5.7 SSW 33 44 18 24 1023.2 1023.1 0.0
20/11:00am 17.6 11.0 7.6 52 5.1 SSW 32 44 17 24 1023.4 1023.3 0.0
20/10:30am 16.0 9.8 7.7 58 4.2 SSW 30 41 16 22 1023.7 1023.5 0.0
20/10:00am 15.5 10.1 8.0 61 3.8 SSW 26 41 14 22 1023.4 1023.3 0.0
20/09:30am 14.6 8.8 8.1 65 3.3 SSW 28 41 15 22 1023.4 1023.3 0.0
20/09:00am 13.3 7.4 7.5 68 2.8 SSW 28 37 15 20 1023.3 1023.2 17.0
20/08:30am 12.4 6.8 7.1 70 2.6 SSW 26 35 14 19 1023.1 1023.0 17.0
20/08:00am 12.0 6.0 7.1 72 2.4 SSW 28 41 15 22 1022.9 1022.8 17.0
20/07:30am 11.7 6.8 7.0 73 2.3 SSW 22 33 12 18 1022.7 1022.6 17.0
20/07:00am 11.9 8.0 7.0 72 2.4 SSW 17 24 9 13 1022.4 1022.2 17.0
20/06:30am 12.7 7.6 7.8 72 2.4 SSW 24 33 13 18 1021.7 1021.5 17.0
20/06:00am 13.5 9.3 9.6 77 2.0 SSW 22 35 12 19 1021.4 1021.2 17.0
20/05:30am 13.9 8.2 9.9 77 2.1 SSW 30 43 16 23 1020.8 1020.6 17.0
20/05:00am 15.2 11.1 11.6 79 1.9 SSW 24 33 13 18 1020.3 1020.1 17.0
20/04:30am 15.8 12.9 12.9 83 1.6 SSW 20 26 11 14 1020.1 1019.9 17.0
20/04:00am 16.0 13.9 13.7 86 1.3 SW 17 24 9 13 1019.9 1019.7 17.0
20/03:30am 16.1 14.9 13.9 87 1.3 SW 13 19 7 10 1019.9 1019.7 17.0
20/03:00am 16.7 15.7 14.5 87 1.3 SW 13 19 7 10 1019.9 1019.7 17.0
20/02:30am 17.3 16.3 15.6 90 1.0 SW 15 24 8 13 1019.5 1019.3 17.0
20/02:04am 18.2 17.4 17.2 94 0.6 SW 17 22 9 12 1019.6 1019.4 17.0
20/02:00am 18.4 17.7 17.4 94 0.6 SW 17 22 9 12 1019.7 1019.5 17.0
20/01:30am 20.1 21.0 20.1 100 0.0 W 15 22 8 12 1019.8 1019.6 17.0
20/01:00am 20.2 22.3 20.2 100 0.0 WNW 9 11 5 6 1019.7 1019.5 17.0
20/12:30am 20.4 23.0 20.4 100 0.0 NW 7 13 4 7 1019.9 1019.7 17.0
20/12:00am 20.3 22.8 20.3 100 0.0 NNW 7 13 4 7 1020.3 1020.1 17.0
 
Date/Time
EDT
Temp
°C
App
Temp
°C
Dew
Point
°C
Rel
Hum
%
Delta-T
°C
Wind Press
QNH
hPa
Press
MSL
hPa
Rain since
9am
mm
Dir  Spd
km/h
Gust
km/h
Spd
kts
Gust
kts
19/11:30pm 20.3 24.2 20.3 100 0.0 CALM 0 0 0 0 1020.4 1020.2 17.0
19/11:08pm 20.2 23.3 20.2 100 0.0 W 4 7 2 4 1020.4 1020.2 16.8
19/11:00pm 20.2 24.0 20.2 100 0.0 CALM 0 0 0 0 1020.4 1020.2 16.8
19/10:30pm 20.1 22.5 20.1 100 0.0 NW 7 7 4 4 1020.2 1020.0 16.8
19/10:00pm 20.0 23.7 20.0 100 0.0 CALM 0 0 0 0 1020.0 1019.8 16.8
19/09:30pm 20.1 22.7 20.1 100 0.0 NW 6 9 3 5 1020.0 1019.8 16.8
19/09:00pm 20.2 22.3 20.2 100 0.0 NNW 9 11 5 6 1019.9 1019.7 16.6
19/08:30pm 20.2 21.5 20.2 100 0.0 NNW 13 17 7 9 1019.2 1019.0 16.6
19/08:07pm 20.2 21.5 20.2 100 0.0 NNW 13 17 7 9 1019.3 1019.1 16.6
19/08:00pm 20.2 21.5 20.2 100 0.0 NW 13 20 7 11 1019.4 1019.2 16.6
19/07:40pm 20.3 20.3 20.1 99 0.1 W 20 33 11 18 1019.5 1019.3 13.2
19/07:30pm 20.6 22.8 20.4 99 0.1 NNW 9 13 5 7 1018.9 1018.7 10.2
19/07:00pm 20.7 21.4 20.4 98 0.2 N 17 22 9 12 1018.2 1018.0 10.2
19/06:30pm 21.0 21.8 20.7 98 0.2 N 17 20 9 11 1018.1 1017.9 10.2
19/06:00pm 21.0 22.3 20.8 99 0.1 N 15 22 8 12 1017.8 1017.6 10.2
19/05:30pm 20.6 21.3 20.4 99 0.1 NNE 17 24 9 13 1017.9 1017.7 10.2
19/05:22pm 20.5 20.8 20.3 99 0.1 N 19 28 10 15 1017.9 1017.7 10.0
19/05:03pm 20.6 22.0 20.4 99 0.1 N 13 20 7 11 1018.0 1017.8 9.6
19/05:00pm 20.6 22.0 20.4 99 0.1 N 13 19 7 10 1018.3 1018.1 9.0
19/04:30pm 20.8 21.7 20.0 95 0.5 N 15 22 8 12 1018.3 1018.1 8.4
19/04:00pm 20.9 21.2 20.4 97 0.3 NNE 19 24 10 13 1018.1 1017.9 8.4
19/03:30pm 20.9 21.2 20.7 99 0.1 NNE 20 28 11 15 1018.5 1018.3 8.4
19/03:00pm 20.6 21.3 20.4 99 0.1 N 17 22 9 12 1019.2 1019.0 8.2
19/02:46pm 20.4 21.0 20.2 99 0.1 N 17 24 9 13 1019.4 1019.2 8.0
19/02:30pm 20.4 21.4 20.2 99 0.1 NNW 15 20 8 11 1019.9 1019.7 7.2
19/02:25pm 20.6 22.0 20.4 99 0.1 NNW 13 19 7 10 1020.0 1019.8 6.0
19/02:00pm 20.9 22.9 20.7 99 0.1 NW 11 17 6 9 1020.1 1019.9 4.2
19/01:30pm 20.6 20.9 20.4 99 0.1 WNW 19 24 10 13 1020.3 1020.1 3.2
19/01:00pm 21.2 21.3 20.4 95 0.5 NW 20 28 11 15 1020.6 1020.4 1.2
19/12:30pm 23.1 19.5 17.1 69 3.7 N 32 41 17 22 1020.5 1020.3 0.0
19/12:17pm 24.5 21.0 15.4 57 5.5 N 28 44 15 24 1020.3 1020.1 0.0
19/12:00pm 25.7 23.8 15.1 52 6.4 NNW 19 26 10 14 1020.3 1020.1 0.0
19/11:30am 27.0 23.6 15.7 50 6.9 N 28 37 15 20 1020.3 1020.1 0.0
19/11:00am 26.3 22.4 15.4 51 6.6 N 30 39 16 21 1020.2 1020.0 0.0
19/10:30am 25.4 23.6 16.0 56 5.8 N 20 26 11 14 1020.3 1020.1 0.0
19/10:00am 23.7 22.3 17.0 66 4.1 N 20 30 11 16 1020.6 1020.4 0.0
19/09:30am 23.7 21.5 16.0 62 4.7 NNE 22 30 12 16 1020.5 1020.3 0.0
19/09:00am 21.0 20.5 16.8 77 2.6 NNE 15 20 8 11 1020.6 1020.4 0.2
19/08:30am 22.3 20.0 14.7 62 4.5 NNE 20 28 11 15 1020.7 1020.5 0.2
19/08:00am 21.8 20.0 14.4 63 4.3 N 17 24 9 13 1020.7 1020.5 0.2
19/07:30am 20.8 19.3 14.2 66 3.9 NNE 15 17 8 9 1020.2 1020.0 0.2
19/07:00am 22.2 19.3 12.2 53 5.7 N 19 26 10 14 1020.0 1019.8 0.0
19/06:30am 23.7 20.3 10.4 43 7.4 N 19 26 10 14 1019.3 1019.1 0.0
19/06:00am 23.6 19.9 9.6 41 7.6 N 19 24 10 13 1019.0 1018.8 0.0
19/05:30am 23.3 20.0 9.7 42 7.4 NNE 17 22 9 12 1018.7 1018.5 0.0
19/05:00am 23.8 20.4 9.0 39 8.0 NE 17 24 9 13 1018.4 1018.2 0.0
19/04:30am 24.2 20.8 9.0 38 8.2 NNE 17 22 9 12 1018.2 1018.0 0.0
19/04:00am 24.8 21.5 9.5 38 8.4 NNE 17 22 9 12 1018.2 1018.0 0.0
19/03:30am 25.4 21.5 9.3 36 8.8 NNE 20 24 11 13 1018.2 1018.0 0.0
19/03:00am 25.3 21.3 9.2 36 8.8 NNE 20 28 11 15 1018.4 1018.2 0.0
19/02:30am 25.3 21.2 8.7 35 9.0 NNE 20 26 11 14 1018.7 1018.5 0.0
19/02:00am 25.4 20.8 8.0 33 9.3 NNE 22 35 12 19 1018.8 1018.6 0.0
19/01:30am 25.2 21.0 8.2 34 9.1 NNE 20 30 11 16 1019.0 1018.8 0.0
19/01:00am 24.9 21.2 8.0 34 9.0 NNE 17 24 9 13 1019.2 1019.0 0.0
19/12:30am 25.1 20.4 7.7 33 9.3 NE 22 30 12 16 1019.3 1019.1 0.0
19/12:00am 22.2 18.6 6.8 37 7.9 ENE 15 17 8 9 1019.4 1019.2 0.0
 
Date/Time
EDT
Temp
°C
App
Temp
°C
Dew
Point
°C
Rel
Hum
%
Delta-T
°C
Wind Press
QNH
hPa
Press
MSL
hPa
Rain since
9am
mm
Dir  Spd
km/h
Gust
km/h
Spd
kts
Gust
kts
18/11:30pm 22.6 18.5 6.4 35 8.3 ENE 17 19 9 10 1019.6 1019.4 0.0
18/11:00pm 22.1 18.2 7.1 38 7.7 ENE 17 20 9 11 1019.6 1019.4 0.0
18/10:30pm 21.2 17.4 7.4 41 7.1 E 17 19 9 10 1019.7 1019.5 0.0
18/10:00pm 22.4 18.5 7.0 37 8.0 ENE 17 19 9 10 1019.7 1019.5 0.0
18/09:30pm 22.6 18.6 6.8 36 8.2 ENE 17 20 9 11 1019.7 1019.5 0.0
18/09:00pm 22.5 18.8 6.3 35 8.3 ENE 15 17 8 9 1019.6 1019.4 0.0
18/08:30pm 25.2 21.4 5.9 29 10.0 NE 15 19 8 10 1019.3 1019.1 0.0
18/08:00pm 26.0 21.9 6.1 28 10.3 NE 17 20 9 11 1019.1 1018.9 0.0
18/07:30pm 27.3 22.8 6.1 26 11.1 NE 19 24 10 13 1018.9 1018.7 0.0
18/07:00pm 28.5 23.8 6.0 24 11.8 NE 20 28 11 15 1018.7 1018.5 0.0
18/06:30pm 29.5 24.8 6.2 23 12.4 NE 20 26 11 14 1018.5 1018.3 0.0
18/06:00pm 29.9 24.8 5.9 22 12.7 NE 22 33 12 18 1018.3 1018.1 0.0
18/05:30pm 30.1 25.7 6.7 23 12.6 NE 19 28 10 15 1018.5 1018.3 0.0
18/05:00pm 30.4 26.1 7.0 23 12.7 ENE 19 32 10 17 1018.5 1018.3 0.0
18/04:30pm 30.5 26.2 7.0 23 12.8 NE 19 32 10 17 1018.7 1018.5 0.0
18/04:00pm 30.3 26.5 7.5 24 12.4 NNE 17 26 9 14 1018.9 1018.7 0.0
18/03:30pm 30.7 27.5 8.4 25 12.4 NE 15 30 8 16 1019.2 1019.0 0.0
18/03:00pm 29.8 26.2 8.2 26 11.9 NNE 17 30 9 16 1019.7 1019.5 0.0
18/02:30pm 29.3 25.2 7.8 26 11.7 NE 19 30 10 16 1020.4 1020.2 0.0
18/02:00pm 29.5 25.1 9.1 28 11.4 NE 22 32 12 17 1020.8 1020.6 0.0
18/01:30pm 29.5 25.5 9.1 28 11.4 NE 20 33 11 18 1021.2 1021.0 0.0
18/01:00pm 28.3 25.3 9.1 30 10.6 NE 15 28 8 15 1021.8 1021.6 0.0
18/12:30pm 28.3 25.1 10.0 32 10.3 NE 17 28 9 15 1022.3 1022.1 0.0
18/12:00pm 27.4 24.7 10.2 34 9.7 N 15 22 8 12 1022.7 1022.6 0.0
18/11:30am 27.1 24.5 10.8 36 9.3 N 15 24 8 13 1023.1 1023.0 0.0
18/11:00am 26.0 22.0 10.6 38 8.6 NNE 22 35 12 19 1023.6 1023.4 0.0
18/10:30am 24.7 20.6 10.2 40 8.1 NNE 22 30 12 16 1023.9 1023.7 0.0
18/10:00am 24.0 20.3 10.3 42 7.6 NNE 20 28 11 15 1024.0 1023.8 0.0
18/09:30am 23.4 19.5 10.8 45 7.0 NE 22 30 12 16 1024.1 1023.9 0.0
18/09:00am 22.6 19.1 11.0 48 6.4 NE 20 28 11 15 1024.2 1024.0 0.0
18/08:30am 21.3 17.3 10.5 50 5.9 NE 22 30 12 16 1024.1 1023.9 0.0
18/08:00am 20.6 17.6 10.7 53 5.4 NE 17 24 9 13 1024.0 1023.8 0.0
18/07:30am 19.6 16.2 10.6 56 4.9 NE 19 28 10 15 1023.4 1023.3 0.0
18/07:00am 18.4 15.7 10.3 59 4.3 NE 15 22 8 12 1023.0 1022.9 0.0
18/06:30am 18.2 14.4 9.8 58 4.5 ENE 20 28 11 15 1022.4 1022.2 0.0
18/06:00am 18.0 14.3 9.4 57 4.5 ENE 19 24 10 13 1022.2 1022.0 0.0
18/05:30am 18.7 16.7 8.7 52 5.2 NNE 9 15 5 8 1021.9 1021.7 0.0
18/05:00am 19.1 14.9 8.1 49 5.7 NE 20 26 11 14 1021.5 1021.3 0.0
18/04:30am 18.9 14.5 7.4 47 5.9 ENE 20 28 11 15 1021.3 1021.1 0.0
18/04:00am 18.7 14.0 5.9 43 6.3 ENE 20 24 11 13 1021.4 1021.2 0.0
18/03:30am 21.4 16.6 7.3 40 7.3 NE 22 32 12 17 1021.4 1021.2 0.0
18/03:00am 17.1 13.7 6.0 48 5.4 ENE 13 15 7 8 1021.3 1021.1 0.0
18/02:30am 17.0 12.4 5.6 47 5.5 E 19 20 10 11 1021.2 1021.0 0.0
18/02:00am 17.3 12.1 5.6 46 5.7 ESE 22 24 12 13 1021.5 1021.3 0.0
18/01:30am 17.9 13.1 5.5 44 6.1 ESE 20 22 11 12 1021.5 1021.3 0.0
18/01:00am 18.2 13.5 5.1 42 6.3 ESE 19 24 10 13 1021.7 1021.5 0.0
18/12:30am 18.5 14.5 5.0 41 6.6 E 15 17 8 9 1021.7 1021.5 0.0
18/12:00am 18.5 14.1 5.0 41 6.5 ESE 17 19 9 10 1021.9 1021.7 0.0
 
Date/Time
EDT
Temp
°C
App
Temp
°C
Dew
Point
°C
Rel
Hum
%
Delta-T
°C
Wind Press
QNH
hPa
Press
MSL
hPa
Rain since
9am
mm
Dir  Spd
km/h
Gust
km/h
Spd
kts
Gust
kts
17/11:30pm 18.0 14.1 5.2 43 6.2 ESE 15 15 8 8 1021.8 1021.6 0.0
17/11:00pm 17.2 14.5 5.8 47 5.6 E 9 13 5 7 1021.8 1021.6 0.0
17/10:30pm 17.1 14.0 5.7 47 5.6 E 11 13 6 7 1021.5 1021.3 0.0
17/10:00pm 16.8 13.8 6.0 49 5.3 E 11 13 6 7 1021.4 1021.2 0.0
17/09:30pm 18.5 15.8 5.4 42 6.4 E 9 13 5 7 1021.2 1021.0 0.0
17/09:00pm 19.3 15.9 6.1 42 6.6 E 13 15 7 8 1021.1 1020.9 0.0
17/08:30pm 20.2 17.2 6.2 40 7.0 E 11 11 6 6 1021.0 1020.8 0.0
17/08:00pm 21.4 18.3 5.7 36 7.9 E 11 13 6 7 1020.7 1020.5 0.0
17/07:30pm 23.6 20.0 5.0 30 9.4 ESE 13 15 7 8 1020.6 1020.4 0.0
17/07:00pm 27.0 23.3 4.7 24 11.4 E 13 17 7 9 1020.3 1020.1 0.0
17/06:30pm 28.4 23.2 2.6 19 12.8 E 19 28 10 15 1020.0 1019.8 0.0

Other Formats:

Comma delimited format used in spreadsheet applications
http://www.bom.gov.au/fwo/IDN60801/IDN60801.95704.axf

JavaScript Object Notation format (JSON) in row-major order
http://www.bom.gov.au/fwo/IDN60801/IDN60801.95704.json